Historyczne dane pomiarowe

Dodano dane terminowe – wersja testowa.

Dane z okresu 1951-2019

Wersja bazy: 1.34 [2019-03-16, lista zmian], aktualizacja planowana na 2019-04-15

Dane meteo z obszaru Polski uzyskane na podstawie danych udostępnionych przez Instytut Meteorologii i Gospodarki Wodnej – Państwowy Instytut Badawczy.

 

Wybierz Datę:    

       

TemperaturaWilgotnośćWiatrCiśnienieOpadyŚniegCzas trwania zjawisk
 Stacja t tx tn tng RH VA  wxwx mslp ppp RRR   cm mm wxwxwxwxwxwxwx
1994-08-14 16.3 20.4 11.2 8.4-- 3.7 3.7---- 0.0------------
1994-08-13 18.0 23.5 15.8 13.9-- 6.0 2.7---- 0.0------------
1994-08-12 18.2 22.2 15.8 13.4-- 7.7 1.7---- 1.3------------
1994-08-11 20.8 26.0 17.4 16.0-- 6.0 0.3---- 0.2------------
1994-08-10 21.1 29.1 12.7 12.4-- 1.3 0.7---- 9.8------------
1994-08-09 20.5 23.3 18.3 18.3-- 5.3 1.0---- 7.3------------
1994-08-08 22.0 27.7 18.3 17.3-- 4.7 0.7---- 1.4------------
1994-08-07 24.2 31.7 16.8 13.9-- 3.0 1.7---- 0.7------------
1994-08-06 25.5 34.5 14.5 12.4-- 4.7 1.3---- 0.2------------
1994-08-05 24.9 33.1 15.6 12.9-- 1.0 0.3---- 0.0------------
1994-08-04 23.9 31.0 16.0 13.4-- 2.7 1.3---- 0.0------------
1994-08-03 24.7 30.4 19.8 18.5-- 3.0 1.7---- 0.0------------
1994-08-02 26.4 34.3 18.5 14.8-- 1.7 1.3---- 0.0------------
1994-08-01 27.5 36.7 16.4 13.6-- 2.0 1.7---- 0.0------------
1994-07-31 27.0 36.2 14.5 11.6-- 0.7 0.3---- 0.0------------
1994-07-30 26.4 36.2 12.2 10.5-- 0.0 0.3---- 0.0------------
1994-07-29 25.3 35.4 14.3 10.6-- 0.3 0.3---- 0.0------------
1994-07-28 24.7 35.2 13.4 9.4-- 1.7 1.3---- 0.0------------
1994-07-27 24.6 34.1 14.8 11.9-- 3.3 1.0---- 0.2------------
1994-07-26 24.7 34.1 13.3 10.4-- 2.3 0.0---- 0.0------------
1994-07-25 25.1 32.9 11.3 8.4-- 0.3 0.3---- 0.0------------
1994-07-24 23.5 32.1 10.9 8.0-- 0.3 0.3---- 0.0------------
1994-07-23 21.5 30.6 9.7 6.3-- 0.7 0.3---- 0.0------------
1994-07-22 21.7 31.0 8.6 6.7-- 0.3 0.3---- 0.0------------
1994-07-21 20.6 29.0 8.4 5.5-- 0.0 0.7---- 0.0------------
1994-07-20 20.8 25.6 13.6 11.1-- 1.7 1.0---- 0.0------------
1994-07-19 20.9 25.3 14.5 11.4-- 8.0 1.7---- 0.0------------
1994-07-18 21.3 27.2 15.5 14.0-- 5.7 0.7---- 0.0------------
1994-07-17 22.3 29.2 14.5 12.2-- 6.7 1.3---- 2.8------------
1994-07-16 22.5 31.2 15.8 13.8-- 4.7 1.7---- 2.0------------
1994-07-15 23.5 31.4 13.2 10.3-- 2.0 1.3---- 0.0------------
1994-07-14 22.7 30.5 13.0 10.1-- 2.3 0.3---- 0.0------------
1994-07-13 22.3 28.4 11.7 8.9-- 3.0 3.0---- 0.0------------
1994-07-12 21.7 27.1 14.6 11.9-- 4.3 2.0---- 0.0------------
1994-07-11 19.7 26.5 12.7 10.3-- 6.7 2.0---- 0.0------------
1994-07-10 16.8 23.4 12.3 10.6-- 5.0 2.3---- 1.1------------
1994-07-09 16.2 19.5 13.4 11.5-- 7.0 4.3---- 6.0------------
1994-07-08 17.0 21.8 10.9 8.3-- 4.3 3.0---- 0.0------------
1994-07-07 18.6 26.5 11.7 8.9-- 7.0 1.3---- 1.3------------
1994-07-06 19.8 26.5 12.7 9.6-- 3.0 1.0---- 0.0------------
1994-07-05 20.6 27.8 14.2 12.5-- 6.3 0.7---- 0.0------------
1994-07-04 21.6 31.3 10.2 7.5-- 1.0 0.3---- 0.0------------
1994-07-03 19.9 29.6 9.3 6.0-- 0.7 1.3---- 0.0------------
1994-07-02 20.3 27.2 9.4 7.0-- 0.0 0.7---- 0.0------------
1994-07-01 18.9 25.0 11.4 9.9-- 0.3 1.3---- 0.0------------
1994-06-30 20.9 27.3 18.8 17.2-- 6.3 2.3---- 0.2------------
1994-06-29 25.4 32.7 17.4 14.5-- 2.7 0.0---- 0.0------------
1994-06-28 25.9 32.1 18.3 18.0-- 4.3 0.7---- 0.0------------
1994-06-27 26.2 33.6 16.3 13.9-- 1.7 0.0---- 0.0------------
1994-06-26 20.9 30.2 8.8 6.0-- 3.0 3.3---- 0.0------------
1994-06-25 16.9 25.4 4.0 1.4-- 0.0 1.0---- 0.0------------
1994-06-24 15.2 22.2 7.8 3.6-- 0.0 2.3---- 0.0------------
1994-06-23 17.8 24.3 14.3 13.7-- 1.3 2.7---- 0.0------------
1994-06-22 19.9 27.4 10.2 7.7-- 4.0 1.0---- 0.0------------
1994-06-21 17.0 23.0 7.6 4.6-- 1.3 1.3---- 0.0------------
1994-06-20 17.2 23.7 11.4 8.4-- 4.3 2.3---- 0.0------------
1994-06-19 19.3 27.1 12.2 11.5-- 3.7 2.7---- 0.0------------
1994-06-18 13.0 21.0 3.9 0.8-- 6.0 2.3---- 2.4------------
1994-06-17 11.8 15.4 7.8 6.7-- 5.7 2.7---- 0.0------------
1994-06-16 12.7 17.1 7.0 4.1-- 8.0 2.7---- 2.2------------
248.4 ms

 

Źródłem pochodzenia danych jest Instytut Meteorologii i Gospodarki Wodnej – Państwowy Instytut Badawczy. Dane Instytutu Meteorologii i Gospodarki Wodnej – Państwowego Instytutu Badawczego zostały przetworzone.

Dane źródłowe można odnaleźć na stronie https://dane.imgw.pl